sensor_id;sensor_type;location;lat;lon;timestamp;pressure;altitude;pressure_sealevel;temperature;humidity
22333;BME280;11334;36.986;-121.936;2023-08-07T00:01:02;101029.09;;;29.66;41.05
22333;BME280;11334;36.986;-121.936;2023-08-07T00:03:28;101020.91;;;29.91;40.89
22333;BME280;11334;36.986;-121.936;2023-08-07T00:05:55;101028.50;;;30.14;39.88
22333;BME280;11334;36.986;-121.936;2023-08-07T00:08:21;101009.56;;;30.42;39.39
22333;BME280;11334;36.986;-121.936;2023-08-07T00:10:47;101014.13;;;30.66;39.49
22333;BME280;11334;36.986;-121.936;2023-08-07T00:13:14;101000.16;;;30.77;39.05
22333;BME280;11334;36.986;-121.936;2023-08-07T00:15:40;101006.47;;;31.20;37.92
22333;BME280;11334;36.986;-121.936;2023-08-07T00:18:06;101009.06;;;31.45;37.33
22333;BME280;11334;36.986;-121.936;2023-08-07T00:20:33;101006.28;;;31.50;37.35
22333;BME280;11334;36.986;-121.936;2023-08-07T00:22:59;100992.50;;;31.93;37.25
22333;BME280;11334;36.986;-121.936;2023-08-07T00:25:25;101006.13;;;32.03;36.49
22333;BME280;11334;36.986;-121.936;2023-08-07T00:27:53;100996.94;;;32.12;36.63
22333;BME280;11334;36.986;-121.936;2023-08-07T00:30:19;100995.16;;;32.26;36.72
22333;BME280;11334;36.986;-121.936;2023-08-07T00:32:45;100985.50;;;32.33;36.36
22333;BME280;11334;36.986;-121.936;2023-08-07T00:35:11;100990.59;;;32.63;35.31
22333;BME280;11334;36.986;-121.936;2023-08-07T00:37:38;100991.03;;;32.93;35.31
22333;BME280;11334;36.986;-121.936;2023-08-07T00:40:04;100995.50;;;33.07;35.02
22333;BME280;11334;36.986;-121.936;2023-08-07T00:42:31;100987.13;;;33.17;34.85
22333;BME280;11334;36.986;-121.936;2023-08-07T00:44:57;100996.38;;;33.57;34.37
22333;BME280;11334;36.986;-121.936;2023-08-07T00:47:23;101007.50;;;33.84;33.61
22333;BME280;11334;36.986;-121.936;2023-08-07T00:49:49;100996.47;;;34.15;33.34
22333;BME280;11334;36.986;-121.936;2023-08-07T00:52:16;100987.63;;;34.32;32.79
22333;BME280;11334;36.986;-121.936;2023-08-07T00:54:43;100981.41;;;34.26;32.83
22333;BME280;11334;36.986;-121.936;2023-08-07T00:57:13;100988.53;;;34.54;32.46
22333;BME280;11334;36.986;-121.936;2023-08-07T00:59:42;100980.75;;;34.69;32.47
22333;BME280;11334;36.986;-121.936;2023-08-07T01:02:10;100965.88;;;34.57;31.95
22333;BME280;11334;36.986;-121.936;2023-08-07T01:04:39;100973.22;;;34.88;32.14
22333;BME280;11334;36.986;-121.936;2023-08-07T01:07:06;100974.06;;;34.75;32.13
22333;BME280;11334;36.986;-121.936;2023-08-07T01:09:32;100972.28;;;34.79;32.09
22333;BME280;11334;36.986;-121.936;2023-08-07T01:12:10;100969.06;;;34.77;32.02
22333;BME280;11334;36.986;-121.936;2023-08-07T01:14:51;100973.75;;;35.25;31.34
22333;BME280;11334;36.986;-121.936;2023-08-07T01:17:21;100975.38;;;35.47;31.42
22333;BME280;11334;36.986;-121.936;2023-08-07T01:19:51;100966.78;;;35.70;30.93
22333;BME280;11334;36.986;-121.936;2023-08-07T01:22:18;100964.22;;;35.52;30.46
22333;BME280;11334;36.986;-121.936;2023-08-07T01:24:48;100966.84;;;35.57;30.55
22333;BME280;11334;36.986;-121.936;2023-08-07T01:32:41;100966.97;;;36.26;29.89
22333;BME280;11334;36.986;-121.936;2023-08-07T01:35:11;100963.25;;;36.38;29.62
22333;BME280;11334;36.986;-121.936;2023-08-07T01:37:41;100960.69;;;36.50;30.32
22333;BME280;11334;36.986;-121.936;2023-08-07T01:40:09;100962.06;;;36.69;29.41
22333;BME280;11334;36.986;-121.936;2023-08-07T01:42:36;100969.53;;;36.61;29.67
22333;BME280;11334;36.986;-121.936;2023-08-07T01:45:05;100963.13;;;36.52;29.83
22333;BME280;11334;36.986;-121.936;2023-08-07T01:47:34;100968.41;;;36.23;29.59
22333;BME280;11334;36.986;-121.936;2023-08-07T01:50:01;100965.44;;;36.20;29.74
22333;BME280;11334;36.986;-121.936;2023-08-07T01:52:27;100962.41;;;36.00;30.35
22333;BME280;11334;36.986;-121.936;2023-08-07T01:54:53;100970.38;;;35.71;29.96
22333;BME280;11334;36.986;-121.936;2023-08-07T01:57:19;100967.66;;;35.01;31.49
22333;BME280;11334;36.986;-121.936;2023-08-07T01:59:46;100975.72;;;34.05;32.83
22333;BME280;11334;36.986;-121.936;2023-08-07T02:02:12;100977.16;;;33.21;33.46
22333;BME280;11334;36.986;-121.936;2023-08-07T02:04:38;100985.97;;;32.40;34.52
22333;BME280;11334;36.986;-121.936;2023-08-07T02:07:05;100984.53;;;31.63;35.77
22333;BME280;11334;36.986;-121.936;2023-08-07T02:09:34;100985.88;;;30.85;37.76
22333;BME280;11334;36.986;-121.936;2023-08-07T02:12:00;100988.63;;;30.03;38.75
22333;BME280;11334;36.986;-121.936;2023-08-07T02:14:27;100988.06;;;29.32;40.57
22333;BME280;11334;36.986;-121.936;2023-08-07T02:16:53;100986.56;;;28.70;41.62
22333;BME280;11334;36.986;-121.936;2023-08-07T02:19:20;100988.09;;;28.01;43.26
22333;BME280;11334;36.986;-121.936;2023-08-07T02:21:46;100983.19;;;27.67;44.17
22333;BME280;11334;36.986;-121.936;2023-08-07T02:24:12;100985.81;;;27.26;45.19
22333;BME280;11334;36.986;-121.936;2023-08-07T02:26:39;100993.31;;;26.67;46.87
22333;BME280;11334;36.986;-121.936;2023-08-07T02:29:05;101007.09;;;26.18;48.85
22333;BME280;11334;36.986;-121.936;2023-08-07T02:31:34;101009.59;;;25.71;50.05
22333;BME280;11334;36.986;-121.936;2023-08-07T02:34:01;101004.94;;;25.39;51.56
22333;BME280;11334;36.986;-121.936;2023-08-07T02:36:27;101010.19;;;25.13;52.49
22333;BME280;11334;36.986;-121.936;2023-08-07T02:38:53;101019.53;;;24.67;54.71
22333;BME280;11334;36.986;-121.936;2023-08-07T02:41:19;101018.88;;;24.48;55.36
22333;BME280;11334;36.986;-121.936;2023-08-07T02:43:46;101010.56;;;24.27;55.73
22333;BME280;11334;36.986;-121.936;2023-08-07T02:46:12;101008.34;;;23.90;57.27
22333;BME280;11334;36.986;-121.936;2023-08-07T02:48:38;101005.25;;;23.98;57.21
22333;BME280;11334;36.986;-121.936;2023-08-07T02:51:05;100995.69;;;23.50;58.66
22333;BME280;11334;36.986;-121.936;2023-08-07T02:53:32;101012.22;;;23.60;59.20
22333;BME280;11334;36.986;-121.936;2023-08-07T02:55:58;101012.97;;;23.38;59.86
22333;BME280;11334;36.986;-121.936;2023-08-07T02:58:24;101016.69;;;23.26;60.02
22333;BME280;11334;36.986;-121.936;2023-08-07T03:00:50;101004.19;;;23.14;60.45
22333;BME280;11334;36.986;-121.936;2023-08-07T03:03:17;101003.69;;;23.05;60.85
22333;BME280;11334;36.986;-121.936;2023-08-07T03:05:50;101014.09;;;22.90;62.08
22333;BME280;11334;36.986;-121.936;2023-08-07T03:08:17;101025.00;;;22.84;62.19
22333;BME280;11334;36.986;-121.936;2023-08-07T03:10:57;101014.06;;;22.61;63.23
22333;BME280;11334;36.986;-121.936;2023-08-07T03:13:25;101035.84;;;22.49;64.25
22333;BME280;11334;36.986;-121.936;2023-08-07T03:15:59;101021.50;;;22.30;64.71
22333;BME280;11334;36.986;-121.936;2023-08-07T03:18:26;101034.41;;;22.28;65.13
22333;BME280;11334;36.986;-121.936;2023-08-07T03:20:53;101037.78;;;22.24;65.19
22333;BME280;11334;36.986;-121.936;2023-08-07T03:23:19;101034.44;;;22.04;66.12
22333;BME280;11334;36.986;-121.936;2023-08-07T03:25:45;101040.09;;;21.96;66.61
22333;BME280;11334;36.986;-121.936;2023-08-07T03:28:11;101038.19;;;21.79;67.17
22333;BME280;11334;36.986;-121.936;2023-08-07T03:30:37;101042.88;;;21.66;67.59
22333;BME280;11334;36.986;-121.936;2023-08-07T03:33:04;101051.03;;;21.59;68.02
22333;BME280;11334;36.986;-121.936;2023-08-07T03:35:30;101039.47;;;21.53;68.41
22333;BME280;11334;36.986;-121.936;2023-08-07T03:37:56;101034.78;;;21.42;68.89
22333;BME280;11334;36.986;-121.936;2023-08-07T03:40:22;101042.13;;;21.35;69.43
22333;BME280;11334;36.986;-121.936;2023-08-07T03:42:49;101050.75;;;21.43;69.54
22333;BME280;11334;36.986;-121.936;2023-08-07T03:45:15;101050.22;;;21.28;69.66
22333;BME280;11334;36.986;-121.936;2023-08-07T03:47:41;101056.72;;;21.15;70.26
22333;BME280;11334;36.986;-121.936;2023-08-07T03:50:08;101058.88;;;21.00;71.07
22333;BME280;11334;36.986;-121.936;2023-08-07T03:52:34;101056.34;;;21.05;70.97
22333;BME280;11334;36.986;-121.936;2023-08-07T03:55:00;101068.41;;;21.02;71.41
22333;BME280;11334;36.986;-121.936;2023-08-07T03:57:26;101053.34;;;20.89;71.58
22333;BME280;11334;36.986;-121.936;2023-08-07T03:59:52;101065.94;;;20.94;71.65
22333;BME280;11334;36.986;-121.936;2023-08-07T04:02:20;101066.38;;;20.98;71.61
22333;BME280;11334;36.986;-121.936;2023-08-07T04:04:46;101077.16;;;20.91;71.99
22333;BME280;11334;36.986;-121.936;2023-08-07T04:07:12;101082.34;;;20.93;71.83
22333;BME280;11334;36.986;-121.936;2023-08-07T04:09:38;101078.25;;;20.78;72.59
22333;BME280;11334;36.986;-121.936;2023-08-07T04:12:05;101082.88;;;20.64;72.96
22333;BME280;11334;36.986;-121.936;2023-08-07T04:14:32;101082.88;;;20.64;72.96
22333;BME280;11334;36.986;-121.936;2023-08-07T04:16:58;101073.16;;;20.63;72.83
22333;BME280;11334;36.986;-121.936;2023-08-07T04:19:26;101079.56;;;20.56;73.38
22333;BME280;11334;36.986;-121.936;2023-08-07T04:21:52;101073.34;;;20.56;73.30
22333;BME280;11334;36.986;-121.936;2023-08-07T04:24:18;101070.47;;;20.57;73.67
22333;BME280;11334;36.986;-121.936;2023-08-07T04:26:45;101086.19;;;20.66;73.16
22333;BME280;11334;36.986;-121.936;2023-08-07T04:29:11;101080.38;;;20.63;73.39
22333;BME280;11334;36.986;-121.936;2023-08-07T04:31:37;101077.09;;;20.61;72.88
22333;BME280;11334;36.986;-121.936;2023-08-07T04:34:04;101078.56;;;20.57;73.39
22333;BME280;11334;36.986;-121.936;2023-08-07T04:36:30;101070.94;;;20.41;74.25
22333;BME280;11334;36.986;-121.936;2023-08-07T04:38:56;101073.03;;;20.27;75.29
22333;BME280;11334;36.986;-121.936;2023-08-07T04:41:23;101068.03;;;20.24;75.16
22333;BME280;11334;36.986;-121.936;2023-08-07T04:43:50;101075.91;;;20.25;75.09
22333;BME280;11334;36.986;-121.936;2023-08-07T04:46:16;101069.28;;;20.21;75.36
22333;BME280;11334;36.986;-121.936;2023-08-07T04:48:42;101072.59;;;20.23;75.26
22333;BME280;11334;36.986;-121.936;2023-08-07T04:51:08;101074.28;;;20.18;75.61
22333;BME280;11334;36.986;-121.936;2023-08-07T04:53:35;101078.84;;;20.11;76.01
22333;BME280;11334;36.986;-121.936;2023-08-07T04:56:01;101077.19;;;20.10;76.34
22333;BME280;11334;36.986;-121.936;2023-08-07T04:58:28;101077.41;;;20.02;76.94
22333;BME280;11334;36.986;-121.936;2023-08-07T05:00:57;101080.94;;;20.09;76.84
22333;BME280;11334;36.986;-121.936;2023-08-07T05:03:24;101077.00;;;19.98;76.98
22333;BME280;11334;36.986;-121.936;2023-08-07T05:06:01;101077.84;;;19.99;76.83
22333;BME280;11334;36.986;-121.936;2023-08-07T05:08:28;101083.22;;;19.86;77.67
22333;BME280;11334;36.986;-121.936;2023-08-07T05:10:54;101068.94;;;19.86;77.25
22333;BME280;11334;36.986;-121.936;2023-08-07T05:13:20;101068.72;;;19.68;78.51
22333;BME280;11334;36.986;-121.936;2023-08-07T05:15:49;101075.13;;;19.48;78.92
22333;BME280;11334;36.986;-121.936;2023-08-07T05:18:16;101074.28;;;19.54;79.05
22333;BME280;11334;36.986;-121.936;2023-08-07T05:20:42;101070.56;;;19.48;79.33
22333;BME280;11334;36.986;-121.936;2023-08-07T05:23:09;101070.94;;;19.26;80.13
22333;BME280;11334;36.986;-121.936;2023-08-07T05:25:37;101071.56;;;19.34;80.00
22333;BME280;11334;36.986;-121.936;2023-08-07T05:28:03;101064.75;;;19.38;79.29
22333;BME280;11334;36.986;-121.936;2023-08-07T05:30:31;101055.66;;;19.33;79.39
22333;BME280;11334;36.986;-121.936;2023-08-07T05:32:57;101053.97;;;19.19;79.71
22333;BME280;11334;36.986;-121.936;2023-08-07T05:35:24;101064.53;;;19.21;79.90
22333;BME280;11334;36.986;-121.936;2023-08-07T05:37:50;101058.34;;;19.27;79.16
22333;BME280;11334;36.986;-121.936;2023-08-07T05:40:16;101064.72;;;19.13;79.78
22333;BME280;11334;36.986;-121.936;2023-08-07T05:42:43;101073.38;;;19.02;81.18
22333;BME280;11334;36.986;-121.936;2023-08-07T05:45:10;101072.53;;;19.01;81.04
22333;BME280;11334;36.986;-121.936;2023-08-07T05:47:36;101077.47;;;18.92;81.71
22333;BME280;11334;36.986;-121.936;2023-08-07T05:50:03;101075.75;;;18.84;82.26
22333;BME280;11334;36.986;-121.936;2023-08-07T05:52:29;101077.47;;;18.92;82.03
22333;BME280;11334;36.986;-121.936;2023-08-07T05:54:55;101078.47;;;18.91;81.84
22333;BME280;11334;36.986;-121.936;2023-08-07T05:57:21;101071.22;;;18.78;82.33
22333;BME280;11334;36.986;-121.936;2023-08-07T05:59:48;101066.47;;;18.87;82.03
22333;BME280;11334;36.986;-121.936;2023-08-07T06:02:14;101064.59;;;18.81;81.72
22333;BME280;11334;36.986;-121.936;2023-08-07T06:04:40;101070.81;;;18.81;81.40
22333;BME280;11334;36.986;-121.936;2023-08-07T06:07:06;101067.06;;;18.76;80.98
22333;BME280;11334;36.986;-121.936;2023-08-07T06:09:33;101069.53;;;18.77;80.55
22333;BME280;11334;36.986;-121.936;2023-08-07T06:11:59;101063.94;;;18.72;80.71
22333;BME280;11334;36.986;-121.936;2023-08-07T06:14:25;101072.34;;;18.57;82.43
22333;BME280;11334;36.986;-121.936;2023-08-07T06:16:52;101071.25;;;18.45;82.73
22333;BME280;11334;36.986;-121.936;2023-08-07T06:19:18;101068.78;;;18.50;83.18
22333;BME280;11334;36.986;-121.936;2023-08-07T06:21:45;101067.09;;;18.42;83.89
22333;BME280;11334;36.986;-121.936;2023-08-07T06:24:12;101066.28;;;18.42;83.74
22333;BME280;11334;36.986;-121.936;2023-08-07T06:26:38;101061.75;;;18.42;84.42
22333;BME280;11334;36.986;-121.936;2023-08-07T06:29:04;101071.59;;;18.35;84.74
22333;BME280;11334;36.986;-121.936;2023-08-07T06:31:30;101073.59;;;18.21;85.61
22333;BME280;11334;36.986;-121.936;2023-08-07T06:33:57;101067.97;;;18.16;85.52
22333;BME280;11334;36.986;-121.936;2023-08-07T06:36:25;101063.50;;;18.23;85.14
22333;BME280;11334;36.986;-121.936;2023-08-07T06:38:52;101069.06;;;18.21;84.47
22333;BME280;11334;36.986;-121.936;2023-08-07T06:41:19;101062.63;;;18.16;84.26
22333;BME280;11334;36.986;-121.936;2023-08-07T06:43:45;101066.56;;;18.20;83.74
22333;BME280;11334;36.986;-121.936;2023-08-07T06:46:11;101063.41;;;18.10;83.47
22333;BME280;11334;36.986;-121.936;2023-08-07T06:48:38;101071.03;;;18.06;82.96
22333;BME280;11334;36.986;-121.936;2023-08-07T06:51:04;101063.00;;;18.13;82.74
22333;BME280;11334;36.986;-121.936;2023-08-07T06:53:30;101063.00;;;18.06;82.83
22333;BME280;11334;36.986;-121.936;2023-08-07T06:55:56;101074.22;;;17.96;83.12
22333;BME280;11334;36.986;-121.936;2023-08-07T06:58:23;101066.91;;;17.83;83.73
22333;BME280;11334;36.986;-121.936;2023-08-07T07:00:49;101071.38;;;17.76;84.51
22333;BME280;11334;36.986;-121.936;2023-08-07T07:03:15;101072.41;;;17.75;84.67
22333;BME280;11334;36.986;-121.936;2023-08-07T07:05:41;101076.69;;;17.70;84.26
22333;BME280;11334;36.986;-121.936;2023-08-07T07:08:08;101079.00;;;17.73;83.99
22333;BME280;11334;36.986;-121.936;2023-08-07T07:10:35;101076.69;;;17.70;84.05
22333;BME280;11334;36.986;-121.936;2023-08-07T07:13:04;101093.03;;;17.75;84.21
22333;BME280;11334;36.986;-121.936;2023-08-07T07:15:30;101083.53;;;17.72;85.26
22333;BME280;11334;36.986;-121.936;2023-08-07T07:17:56;101094.00;;;17.68;85.19
22333;BME280;11334;36.986;-121.936;2023-08-07T07:20:23;101093.78;;;17.69;84.86
22333;BME280;11334;36.986;-121.936;2023-08-07T07:22:49;101087.31;;;17.57;84.29
22333;BME280;11334;36.986;-121.936;2023-08-07T07:25:15;101082.97;;;17.56;84.56
22333;BME280;11334;36.986;-121.936;2023-08-07T07:27:42;101087.09;;;17.59;85.01
22333;BME280;11334;36.986;-121.936;2023-08-07T07:30:09;101085.03;;;17.54;84.95
22333;BME280;11334;36.986;-121.936;2023-08-07T07:32:35;101087.09;;;17.59;84.42
22333;BME280;11334;36.986;-121.936;2023-08-07T07:35:01;101087.88;;;17.53;84.66
22333;BME280;11334;36.986;-121.936;2023-08-07T07:37:28;101085.47;;;17.37;85.41
22333;BME280;11334;36.986;-121.936;2023-08-07T07:39:55;101077.53;;;17.29;85.57
22333;BME280;11334;36.986;-121.936;2023-08-07T07:42:22;101079.91;;;17.39;85.21
22333;BME280;11334;36.986;-121.936;2023-08-07T07:44:48;101081.66;;;17.25;85.50
22333;BME280;11334;36.986;-121.936;2023-08-07T07:47:14;101081.31;;;17.14;86.04
22333;BME280;11334;36.986;-121.936;2023-08-07T07:49:45;101082.34;;;17.13;86.57
22333;BME280;11334;36.986;-121.936;2023-08-07T07:52:15;101081.56;;;17.19;86.51
22333;BME280;11334;36.986;-121.936;2023-08-07T07:54:41;101079.28;;;17.16;86.94
22333;BME280;11334;36.986;-121.936;2023-08-07T07:57:07;101075.69;;;16.95;87.77
22333;BME280;11334;36.986;-121.936;2023-08-07T07:59:34;101081.13;;;17.15;87.68
22333;BME280;11334;36.986;-121.936;2023-08-07T08:02:00;101080.56;;;17.20;87.37
22333;BME280;11334;36.986;-121.936;2023-08-07T08:04:27;101087.41;;;17.08;88.28
22333;BME280;11334;36.986;-121.936;2023-08-07T08:06:53;101074.41;;;17.05;87.54
22333;BME280;11334;36.986;-121.936;2023-08-07T08:09:19;101075.78;;;17.01;87.02
22333;BME280;11334;36.986;-121.936;2023-08-07T08:11:46;101084.84;;;17.00;87.11
22333;BME280;11334;36.986;-121.936;2023-08-07T08:14:12;101079.59;;;16.92;87.32
22333;BME280;11334;36.986;-121.936;2023-08-07T08:16:38;101071.09;;;17.03;86.90
22333;BME280;11334;36.986;-121.936;2023-08-07T08:19:04;101065.91;;;17.02;86.90
22333;BME280;11334;36.986;-121.936;2023-08-07T08:21:33;101068.88;;;16.92;87.02
22333;BME280;11334;36.986;-121.936;2023-08-07T08:23:59;101071.56;;;16.92;86.91
22333;BME280;11334;36.986;-121.936;2023-08-07T08:26:26;101068.72;;;16.79;87.78
22333;BME280;11334;36.986;-121.936;2023-08-07T08:28:52;101061.84;;;16.71;88.46
22333;BME280;11334;36.986;-121.936;2023-08-07T08:31:18;101054.34;;;16.80;87.49
22333;BME280;11334;36.986;-121.936;2023-08-07T08:33:47;101050.75;;;16.74;87.09
22333;BME280;11334;36.986;-121.936;2023-08-07T08:36:13;101045.16;;;16.69;87.21
22333;BME280;11334;36.986;-121.936;2023-08-07T08:38:39;101030.75;;;16.70;86.87
22333;BME280;11334;36.986;-121.936;2023-08-07T08:41:07;101039.16;;;16.67;87.31
22333;BME280;11334;36.986;-121.936;2023-08-07T08:43:35;101041.13;;;16.58;87.37
22333;BME280;11334;36.986;-121.936;2023-08-07T08:46:04;101030.16;;;16.53;87.85
22333;BME280;11334;36.986;-121.936;2023-08-07T08:48:35;101028.47;;;16.52;88.32
22333;BME280;11334;36.986;-121.936;2023-08-07T08:51:04;101022.13;;;16.53;87.22
22333;BME280;11334;36.986;-121.936;2023-08-07T08:53:32;101021.28;;;16.53;86.46
22333;BME280;11334;36.986;-121.936;2023-08-07T08:56:00;101022.41;;;16.58;86.94
22333;BME280;11334;36.986;-121.936;2023-08-07T08:58:27;101015.75;;;16.54;87.21
22333;BME280;11334;36.986;-121.936;2023-08-07T09:00:54;101012.03;;;16.55;87.57
22333;BME280;11334;36.986;-121.936;2023-08-07T09:03:21;101015.75;;;16.54;87.53
22333;BME280;11334;36.986;-121.936;2023-08-07T09:05:49;100996.22;;;16.40;87.14
22333;BME280;11334;36.986;-121.936;2023-08-07T09:08:18;101000.91;;;16.38;87.82
22333;BME280;11334;36.986;-121.936;2023-08-07T09:10:45;101003.22;;;16.41;88.05
22333;BME280;11334;36.986;-121.936;2023-08-07T09:13:14;100997.69;;;16.42;88.19
22333;BME280;11334;36.986;-121.936;2023-08-07T09:15:41;101005.59;;;16.50;88.72
22333;BME280;11334;36.986;-121.936;2023-08-07T09:18:13;101004.34;;;16.46;89.18
22333;BME280;11334;36.986;-121.936;2023-08-07T09:20:40;101006.16;;;16.45;89.60
22333;BME280;11334;36.986;-121.936;2023-08-07T09:23:07;101009.47;;;16.47;89.87
22333;BME280;11334;36.986;-121.936;2023-08-07T09:25:34;101007.28;;;16.51;89.44
22333;BME280;11334;36.986;-121.936;2023-08-07T09:28:06;100991.97;;;16.45;88.94
22333;BME280;11334;36.986;-121.936;2023-08-07T09:30:35;100994.63;;;16.45;88.76
22333;BME280;11334;36.986;-121.936;2023-08-07T09:33:03;101010.88;;;16.44;88.45
22333;BME280;11334;36.986;-121.936;2023-08-07T09:35:31;101006.84;;;16.33;88.73
22333;BME280;11334;36.986;-121.936;2023-08-07T09:37:58;101006.38;;;16.30;88.67
22333;BME280;11334;36.986;-121.936;2023-08-07T09:40:24;100993.84;;;16.30;88.87
22333;BME280;11334;36.986;-121.936;2023-08-07T09:42:52;100990.44;;;16.36;88.10
22333;BME280;11334;36.986;-121.936;2023-08-07T09:45:22;100999.66;;;16.19;88.09
22333;BME280;11334;36.986;-121.936;2023-08-07T09:48:04;100997.38;;;16.16;88.75
22333;BME280;11334;36.986;-121.936;2023-08-07T09:50:32;100988.41;;;16.24;89.09
22333;BME280;11334;36.986;-121.936;2023-08-07T09:52:59;100990.63;;;16.20;88.84
22333;BME280;11334;36.986;-121.936;2023-08-07T09:55:25;100983.88;;;16.10;88.99
22333;BME280;11334;36.986;-121.936;2023-08-07T09:57:52;100994.28;;;16.05;89.19
22333;BME280;11334;36.986;-121.936;2023-08-07T10:00:18;100986.22;;;15.99;89.63
22333;BME280;11334;36.986;-121.936;2023-08-07T10:02:50;100994.22;;;15.99;90.07
22333;BME280;11334;36.986;-121.936;2023-08-07T10:05:17;100987.75;;;15.93;90.28
22333;BME280;11334;36.986;-121.936;2023-08-07T10:07:43;100979.13;;;15.91;90.17
22333;BME280;11334;36.986;-121.936;2023-08-07T10:10:10;100985.28;;;15.92;89.69
22333;BME280;11334;36.986;-121.936;2023-08-07T10:12:37;100974.97;;;15.89;89.68
22333;BME280;11334;36.986;-121.936;2023-08-07T10:15:04;100980.47;;;15.87;89.95
22333;BME280;11334;36.986;-121.936;2023-08-07T10:17:31;100961.94;;;15.86;89.73
22333;BME280;11334;36.986;-121.936;2023-08-07T10:19:58;100981.97;;;15.90;90.13
22333;BME280;11334;36.986;-121.936;2023-08-07T10:22:26;100987.31;;;15.90;90.63
22333;BME280;11334;36.986;-121.936;2023-08-07T10:24:54;100977.16;;;15.85;91.01
22333;BME280;11334;36.986;-121.936;2023-08-07T10:27:23;100992.09;;;15.80;91.46
22333;BME280;11334;36.986;-121.936;2023-08-07T10:29:52;100978.44;;;15.61;92.32
22333;BME280;11334;36.986;-121.936;2023-08-07T10:32:21;100988.75;;;15.64;92.39
22333;BME280;11334;36.986;-121.936;2023-08-07T10:34:49;100984.88;;;15.66;91.74
22333;BME280;11334;36.986;-121.936;2023-08-07T10:37:39;100990.50;;;15.71;90.60
22333;BME280;11334;36.986;-121.936;2023-08-07T10:40:07;100987.66;;;15.73;89.87
22333;BME280;11334;36.986;-121.936;2023-08-07T10:42:56;100987.00;;;15.71;90.00
22333;BME280;11334;36.986;-121.936;2023-08-07T10:45:28;100987.00;;;15.71;89.79
22333;BME280;11334;36.986;-121.936;2023-08-07T10:50:35;100996.13;;;15.76;89.42
22333;BME280;11334;36.986;-121.936;2023-08-07T10:53:03;100989.03;;;15.69;88.86
22333;BME280;11334;36.986;-121.936;2023-08-07T10:55:48;100987.22;;;15.69;89.07
22333;BME280;11334;36.986;-121.936;2023-08-07T10:58:31;100988.97;;;15.62;89.69
22333;BME280;11334;36.986;-121.936;2023-08-07T11:01:40;100986.81;;;15.58;90.03
22333;BME280;11334;36.986;-121.936;2023-08-07T11:04:11;100978.69;;;15.51;90.05
22333;BME280;11334;36.986;-121.936;2023-08-07T11:06:39;100982.94;;;15.46;90.58
22333;BME280;11334;36.986;-121.936;2023-08-07T11:09:07;100977.59;;;15.46;91.29
22333;BME280;11334;36.986;-121.936;2023-08-07T11:11:42;100967.56;;;15.48;91.41
22333;BME280;11334;36.986;-121.936;2023-08-07T11:14:19;100978.41;;;15.47;90.55
22333;BME280;11334;36.986;-121.936;2023-08-07T11:16:47;100970.78;;;15.44;90.05
22333;BME280;11334;36.986;-121.936;2023-08-07T11:19:15;100977.22;;;15.35;90.46
22333;BME280;11334;36.986;-121.936;2023-08-07T11:21:42;100979.16;;;15.41;90.34
22333;BME280;11334;36.986;-121.936;2023-08-07T11:24:13;100979.97;;;15.41;90.21
22333;BME280;11334;36.986;-121.936;2023-08-07T11:26:39;100973.44;;;15.44;90.04
22333;BME280;11334;36.986;-121.936;2023-08-07T11:29:06;100977.50;;;15.40;90.41
22333;BME280;11334;36.986;-121.936;2023-08-07T11:31:32;100977.63;;;15.24;91.38
22333;BME280;11334;36.986;-121.936;2023-08-07T11:34:00;100976.00;;;15.23;92.14
22333;BME280;11334;36.986;-121.936;2023-08-07T11:36:28;100977.47;;;15.25;92.11
22333;BME280;11334;36.986;-121.936;2023-08-07T11:38:55;100989.41;;;15.15;92.39
22333;BME280;11334;36.986;-121.936;2023-08-07T11:41:21;100975.41;;;15.13;92.52
22333;BME280;11334;36.986;-121.936;2023-08-07T11:43:48;100971.09;;;15.12;92.20
22333;BME280;11334;36.986;-121.936;2023-08-07T11:46:15;100976.22;;;15.14;92.07
22333;BME280;11334;36.986;-121.936;2023-08-07T11:48:43;100979.38;;;15.17;91.82
22333;BME280;11334;36.986;-121.936;2023-08-07T11:51:09;100986.56;;;15.17;91.27
22333;BME280;11334;36.986;-121.936;2023-08-07T11:53:37;100975.50;;;15.19;91.97
22333;BME280;11334;36.986;-121.936;2023-08-07T11:56:11;100980.38;;;15.16;91.90
22333;BME280;11334;36.986;-121.936;2023-08-07T11:58:44;100980.97;;;15.04;92.15
22333;BME280;11334;36.986;-121.936;2023-08-07T12:03:55;100982.28;;;15.08;91.88
22333;BME280;11334;36.986;-121.936;2023-08-07T12:06:22;100982.75;;;15.11;91.56
22333;BME280;11334;36.986;-121.936;2023-08-07T12:08:50;100980.59;;;15.07;91.55
22333;BME280;11334;36.986;-121.936;2023-08-07T12:11:19;100987.38;;;15.17;91.68
22333;BME280;11334;36.986;-121.936;2023-08-07T12:13:47;100994.81;;;14.99;92.91
22333;BME280;11334;36.986;-121.936;2023-08-07T12:16:15;100994.38;;;14.96;93.78
22333;BME280;11334;36.986;-121.936;2023-08-07T12:18:49;100997.50;;;14.99;93.44
22333;BME280;11334;36.986;-121.936;2023-08-07T12:21:22;100997.94;;;15.11;93.11
22333;BME280;11334;36.986;-121.936;2023-08-07T12:23:59;100998.25;;;15.16;92.30
22333;BME280;11334;36.986;-121.936;2023-08-07T12:26:25;101004.94;;;15.12;92.38
22333;BME280;11334;36.986;-121.936;2023-08-07T12:28:52;101007.53;;;15.19;92.88
22333;BME280;11334;36.986;-121.936;2023-08-07T12:31:20;101010.50;;;15.24;93.13
22333;BME280;11334;36.986;-121.936;2023-08-07T12:33:46;101015.84;;;15.24;94.07